Station Historical Data
Daily Summary for May 3, 2012 Units:  Both    English   Metric
« Previous Day
Next Day »
Daily Weekly Monthly Yearly Custom
  High: Low: Average:
Temperature: 74.8 °F /  23.8 °C 65.8 °F /  18.8 °C 69.7 °F /  20.9 °C
Dew Point: 68.9 °F /  20.5 °C 63.7 °F /  17.6 °C 65.9 °F /  18.8 °C
Humidity: 93% 79% 88%
Wind Speed: 15.0mph /  24.1km/h - 5.3mph /  8.5km/h
Wind Gust: 19.0mph /  30.6km/h - -
Wind- - SE
Pressure: 30.07 in /  1018.2 hPa 29.97 in /  1014.8 hPa -
Precipitation: 0.42 in /  10.67 mm    
Historical Graphs
 
 
Tabular Data for May 3, 2012
Time Temperature Dew Point Pressure Wind Wind Speed Wind Gust Humidity Rainfall Rate (Hourly) Conditions
00:00 70.6 °F /  21.4 °C 64.8 °F /  18.2 °C 30.00in /  1015.8hPa SW 3.0mph /  4.8km/h 3.0mph /  4.8km/h 82% 0.00in /  0mm
00:02 70.6 °F /  21.4 °C 64.8 °F /  18.2 °C 30.00in /  1015.8hPa WSW 3.0mph /  4.8km/h 4.0mph /  6.4km/h 82% 0.00in /  0mm
00:07 70.5 °F /  21.4 °C 65.1 °F /  18.4 °C 30.00in /  1015.8hPa SSW 1.0mph /  1.6km/h 3.0mph /  4.8km/h 83% 0.00in /  0mm
00:12 70.3 °F /  21.3 °C 64.9 °F /  18.3 °C 30.00in /  1015.8hPa SSW 1.0mph /  1.6km/h 2.0mph /  3.2km/h 83% 0.00in /  0mm
00:17 70.0 °F /  21.1 °C 64.6 °F /  18.1 °C 30.00in /  1015.8hPa SW 1.0mph /  1.6km/h 2.0mph /  3.2km/h 83% 0.00in /  0mm
00:22 69.8 °F /  21 °C 64.4 °F /  18 °C 29.99in /  1015.5hPa SW 1.0mph /  1.6km/h 2.0mph /  3.2km/h 83% 0.00in /  0mm
00:27 69.6 °F /  20.9 °C 64.6 °F /  18.1 °C 30.00in /  1015.8hPa SSW 1.0mph /  1.6km/h 2.0mph /  3.2km/h 84% 0.00in /  0mm
00:32 69.6 °F /  20.9 °C 64.6 °F /  18.1 °C 29.99in /  1015.5hPa SSW 2.0mph /  3.2km/h 2.0mph /  3.2km/h 84% 0.00in /  0mm
00:37 69.5 °F /  20.8 °C 64.5 °F /  18.1 °C 29.99in /  1015.5hPa South 3.0mph /  4.8km/h 3.0mph /  4.8km/h 84% 0.00in /  0mm
00:42 69.5 °F /  20.8 °C 64.1 °F /  17.8 °C 29.99in /  1015.5hPa SE 1.0mph /  1.6km/h 4.0mph /  6.4km/h 83% 0.00in /  0mm
00:47 69.4 °F /  20.8 °C 64.4 °F /  18 °C 29.99in /  1015.5hPa SSE 2.0mph /  3.2km/h 2.0mph /  3.2km/h 84% 0.00in /  0mm
00:52 69.1 °F /  20.6 °C 64.4 °F /  18 °C 29.99in /  1015.5hPa SSE 2.0mph /  3.2km/h 2.0mph /  3.2km/h 85% 0.00in /  0mm
00:57 68.9 °F /  20.5 °C 64.2 °F /  17.9 °C 29.99in /  1015.5hPa South 2.0mph /  3.2km/h 2.0mph /  3.2km/h 85% 0.00in /  0mm
01:02 69.0 °F /  20.6 °C 64.3 °F /  17.9 °C 30.00in /  1015.8hPa SSW 2.0mph /  3.2km/h 4.0mph /  6.4km/h 85% 0.00in /  0mm
01:07 69.1 °F /  20.6 °C 64.1 °F /  17.8 °C 29.99in /  1015.5hPa SSW 2.0mph /  3.2km/h 4.0mph /  6.4km/h 84% 0.00in /  0mm
01:12 69.1 °F /  20.6 °C 64.1 °F /  17.8 °C 30.00in /  1015.8hPa South 3.0mph /  4.8km/h 3.0mph /  4.8km/h 84% 0.00in /  0mm
01:17 69.1 °F /  20.6 °C 64.1 °F /  17.8 °C 29.99in /  1015.5hPa South 2.0mph /  3.2km/h 4.0mph /  6.4km/h 84% 0.00in /  0mm
01:42 69.0 °F /  20.6 °C 64.3 °F /  17.9 °C 30.00in /  1015.8hPa SE 8.0mph /  12.9km/h 8.0mph /  12.9km/h 85% 0.00in /  0mm
01:47 69.0 °F /  20.6 °C 64.3 °F /  17.9 °C 29.99in /  1015.5hPa SSW 7.0mph /  11.3km/h 10.0mph /  16.1km/h 85% 0.00in /  0mm
01:52 69.3 °F /  20.7 °C 64.6 °F /  18.1 °C 29.99in /  1015.5hPa South 3.0mph /  4.8km/h 7.0mph /  11.3km/h 85% 0.00in /  0mm
01:57 69.4 °F /  20.8 °C 64.7 °F /  18.2 °C 29.99in /  1015.5hPa SW 11.0mph /  17.7km/h 11.0mph /  17.7km/h 85% 0.00in /  0mm
02:02 69.5 °F /  20.8 °C 64.8 °F /  18.2 °C 29.99in /  1015.5hPa SE 4.0mph /  6.4km/h 6.0mph /  9.7km/h 85% 0.00in /  0mm
02:07 69.4 °F /  20.8 °C 64.7 °F /  18.2 °C 29.99in /  1015.5hPa SSE 5.0mph /  8km/h 9.0mph /  14.5km/h 85% 0.00in /  0mm
02:12 69.4 °F /  20.8 °C 64.7 °F /  18.2 °C 29.99in /  1015.5hPa SW 7.0mph /  11.3km/h 9.0mph /  14.5km/h 85% 0.00in /  0mm
02:17 69.3 °F /  20.7 °C 64.6 °F /  18.1 °C 29.98in /  1015.1hPa SSE 2.0mph /  3.2km/h 8.0mph /  12.9km/h 85% 0.00in /  0mm
02:22 69.2 °F /  20.7 °C 64.8 °F /  18.2 °C 29.98in /  1015.1hPa SSW 4.0mph /  6.4km/h 4.0mph /  6.4km/h 86% 0.00in /  0mm
02:27 69.1 °F /  20.6 °C 64.7 °F /  18.2 °C 29.98in /  1015.1hPa SE 3.0mph /  4.8km/h 8.0mph /  12.9km/h 86% 0.00in /  0mm
02:32 69.0 °F /  20.6 °C 64.6 °F /  18.1 °C 29.98in /  1015.1hPa SW 4.0mph /  6.4km/h 6.0mph /  9.7km/h 86% 0.00in /  0mm
02:37 69.0 °F /  20.6 °C 64.6 °F /  18.1 °C 29.98in /  1015.1hPa South 4.0mph /  6.4km/h 6.0mph /  9.7km/h 86% 0.00in /  0mm
02:42 68.9 °F /  20.5 °C 64.9 °F /  18.3 °C 29.98in /  1015.1hPa SSW 2.0mph /  3.2km/h 7.0mph /  11.3km/h 87% 0.00in /  0mm
02:47 68.8 °F /  20.4 °C 64.8 °F /  18.2 °C 29.98in /  1015.1hPa South 3.0mph /  4.8km/h 7.0mph /  11.3km/h 87% 0.00in /  0mm
02:52 68.8 °F /  20.4 °C 64.8 °F /  18.2 °C 29.98in /  1015.1hPa South 4.0mph /  6.4km/h 5.0mph /  8km/h 87% 0.00in /  0mm
02:57 68.8 °F /  20.4 °C 64.4 °F /  18 °C 29.98in /  1015.1hPa SSW 4.0mph /  6.4km/h 5.0mph /  8km/h 86% 0.00in /  0mm
03:02 68.8 °F /  20.4 °C 64.4 °F /  18 °C 29.98in /  1015.1hPa SSE 3.0mph /  4.8km/h 5.0mph /  8km/h 86% 0.00in /  0mm
03:08 68.8 °F /  20.4 °C 64.4 °F /  18 °C 29.98in /  1015.1hPa SSE 1.0mph /  1.6km/h 4.0mph /  6.4km/h 86% 0.00in /  0mm
03:13 68.7 °F /  20.4 °C 64.7 °F /  18.2 °C 29.98in /  1015.1hPa SE 3.0mph /  4.8km/h 3.0mph /  4.8km/h 87% 0.00in /  0mm
03:18 68.6 °F /  20.3 °C 64.6 °F /  18.1 °C 29.98in /  1015.1hPa SE 2.0mph /  3.2km/h 3.0mph /  4.8km/h 87% 0.00in /  0mm
03:23 68.4 °F /  20.2 °C 64.4 °F /  18 °C 29.98in /  1015.1hPa SSE 2.0mph /  3.2km/h 5.0mph /  8km/h 87% 0.00in /  0mm
03:28 68.3 °F /  20.2 °C 64.6 °F /  18.1 °C 29.97in /  1014.8hPa SSE 2.0mph /  3.2km/h 3.0mph /  4.8km/h 88% 0.00in /  0mm
03:33 68.2 °F /  20.1 °C 64.5 °F /  18.1 °C 29.98in /  1015.1hPa SSE 2.0mph /  3.2km/h 3.0mph /  4.8km/h 88% 0.00in /  0mm
03:38 68.1 °F /  20.1 °C 64.4 °F /  18 °C 29.97in /  1014.8hPa SE 4.0mph /  6.4km/h 4.0mph /  6.4km/h 88% 0.00in /  0mm
03:43 68.2 °F /  20.1 °C 64.5 °F /  18.1 °C 29.97in /  1014.8hPa SE 1.0mph /  1.6km/h 3.0mph /  4.8km/h 88% 0.00in /  0mm
03:48 68.2 °F /  20.1 °C 64.5 °F /  18.1 °C 29.97in /  1014.8hPa SE 2.0mph /  3.2km/h 4.0mph /  6.4km/h 88% 0.00in /  0mm
03:53 68.3 °F /  20.2 °C 64.6 °F /  18.1 °C 29.98in /  1015.1hPa SE 4.0mph /  6.4km/h 6.0mph /  9.7km/h 88% 0.00in /  0mm
03:55 68.4 °F /  20.2 °C 64.7 °F /  18.2 °C 29.98in /  1015.1hPa SE 4.0mph /  6.4km/h 6.0mph /  9.7km/h 88% 0.00in /  0mm
04:20 68.5 °F /  20.3 °C 65.1 °F /  18.4 °C 29.99in /  1015.5hPa SE 6.0mph /  9.7km/h 9.0mph /  14.5km/h 89% 0.00in /  0mm
05:15 67.6 °F /  19.8 °C 65.2 °F /  18.4 °C 30.01in /  1016.1hPa SE 5.0mph /  8km/h 8.0mph /  12.9km/h 92% 0.00in /  0mm
05:20 67.6 °F /  19.8 °C 65.2 °F /  18.4 °C 30.00in /  1015.8hPa SE 4.0mph /  6.4km/h 8.0mph /  12.9km/h 92% 0.00in /  0mm
05:25 67.5 °F /  19.7 °C 65.1 °F /  18.4 °C 30.01in /  1016.1hPa South 5.0mph /  8km/h 7.0mph /  11.3km/h 92% 0.00in /  0mm
05:30 67.5 °F /  19.7 °C 65.1 °F /  18.4 °C 30.01in /  1016.1hPa South 5.0mph /  8km/h 6.0mph /  9.7km/h 92% 0.00in /  0mm
05:35 67.4 °F /  19.7 °C 65.3 °F /  18.5 °C 30.01in /  1016.1hPa SE 3.0mph /  4.8km/h 7.0mph /  11.3km/h 93% 0.08in /  2.03mm
05:41 67.4 °F /  19.7 °C 65.3 °F /  18.5 °C 30.01in /  1016.1hPa SW 3.0mph /  4.8km/h 6.0mph /  9.7km/h 93% 0.08in /  2.03mm
05:46 67.3 °F /  19.6 °C 65.2 °F /  18.4 °C 30.01in /  1016.1hPa SSE 3.0mph /  4.8km/h 5.0mph /  8km/h 93% 0.09in /  2.29mm
05:51 67.3 °F /  19.6 °C 65.2 °F /  18.4 °C 30.01in /  1016.1hPa SSW 3.0mph /  4.8km/h 3.0mph /  4.8km/h 93% 0.11in /  2.79mm
05:56 67.2 °F /  19.6 °C 65.1 °F /  18.4 °C 30.01in /  1016.1hPa South 2.0mph /  3.2km/h 3.0mph /  4.8km/h 93% 0.15in /  3.81mm
06:01 67.1 °F /  19.5 °C 65.0 °F /  18.3 °C 30.01in /  1016.1hPa South 2.0mph /  3.2km/h 2.0mph /  3.2km/h 93% 0.08in /  2.03mm
06:06 67.1 °F /  19.5 °C 65.0 °F /  18.3 °C 30.01in /  1016.1hPa SSW 2.0mph /  3.2km/h 2.0mph /  3.2km/h 93% 0.10in /  2.54mm
06:11 67.1 °F /  19.5 °C 65.0 °F /  18.3 °C 30.01in /  1016.1hPa Calm   2.0mph /  3.2km/h 93% 0.09in /  2.29mm
06:16 67.0 °F /  19.4 °C 64.9 °F /  18.3 °C 30.01in /  1016.1hPa SW 3.0mph /  4.8km/h 3.0mph /  4.8km/h 93% 0.05in /  1.27mm
06:21 67.0 °F /  19.4 °C 64.9 °F /  18.3 °C 30.02in /  1016.5hPa SW 2.0mph /  3.2km/h 4.0mph /  6.4km/h 93% 0.05in /  1.27mm
06:26 67.0 °F /  19.4 °C 64.9 °F /  18.3 °C 30.02in /  1016.5hPa SE 1.0mph /  1.6km/h 4.0mph /  6.4km/h 93% 0.05in /  1.27mm
06:31 66.9 °F /  19.4 °C 64.8 °F /  18.2 °C 30.02in /  1016.5hPa South 1.0mph /  1.6km/h 2.0mph /  3.2km/h 93% 0.04in /  1.02mm
06:36 66.9 °F /  19.4 °C 64.8 °F /  18.2 °C 30.02in /  1016.5hPa SSW 2.0mph /  3.2km/h 2.0mph /  3.2km/h 93% 0.00in /  0mm
06:41 66.9 °F /  19.4 °C 64.8 °F /  18.2 °C 30.02in /  1016.5hPa SSW 1.0mph /  1.6km/h 3.0mph /  4.8km/h 93% 0.00in /  0mm
06:46 66.9 °F /  19.4 °C 64.8 °F /  18.2 °C 30.03in /  1016.8hPa SSW 1.0mph /  1.6km/h 4.0mph /  6.4km/h 93% 0.00in /  0mm
06:51 66.9 °F /  19.4 °C 64.8 °F /  18.2 °C 30.03in /  1016.8hPa South 1.0mph /  1.6km/h 3.0mph /  4.8km/h 93% 0.24in /  6.1mm
06:56 66.8 °F /  19.3 °C 64.7 °F /  18.2 °C 30.03in /  1016.8hPa WSW 1.0mph /  1.6km/h 3.0mph /  4.8km/h 93% 0.16in /  4.06mm
07:01 66.8 °F /  19.3 °C 64.7 °F /  18.2 °C 30.03in /  1016.8hPa SSW 1.0mph /  1.6km/h 2.0mph /  3.2km/h 93% 0.13in /  3.3mm
07:06 66.8 °F /  19.3 °C 64.7 °F /  18.2 °C 30.03in /  1016.8hPa SW 1.0mph /  1.6km/h 1.0mph /  1.6km/h 93% 0.07in /  1.78mm
07:11 66.7 °F /  19.3 °C 64.6 °F /  18.1 °C 30.03in /  1016.8hPa SW 1.0mph /  1.6km/h 1.0mph /  1.6km/h 93% 0.35in /  8.89mm
07:16 66.7 °F /  19.3 °C 64.6 °F /  18.1 °C 30.03in /  1016.8hPa Calm   2.0mph /  3.2km/h 93% 0.34in /  8.64mm
07:21 66.7 °F /  19.3 °C 64.6 °F /  18.1 °C 30.03in /  1016.8hPa SE 2.0mph /  3.2km/h 3.0mph /  4.8km/h 93% 0.10in /  2.54mm
07:26 66.7 °F /  19.3 °C 64.6 °F /  18.1 °C 30.04in /  1017.2hPa SE 2.0mph /  3.2km/h 3.0mph /  4.8km/h 93% 0.10in /  2.54mm
07:32 66.7 °F /  19.3 °C 64.6 °F /  18.1 °C 30.04in /  1017.2hPa SE 4.0mph /  6.4km/h 4.0mph /  6.4km/h 93% 0.06in /  1.52mm
07:37 66.7 °F /  19.3 °C 64.6 °F /  18.1 °C 30.04in /  1017.2hPa SSE 4.0mph /  6.4km/h 5.0mph /  8km/h 93% 0.04in /  1.02mm
07:42 66.7 °F /  19.3 °C 64.6 °F /  18.1 °C 30.05in /  1017.5hPa SE 3.0mph /  4.8km/h 5.0mph /  8km/h 93% 0.04in /  1.02mm
07:47 66.7 °F /  19.3 °C 64.6 °F /  18.1 °C 30.05in /  1017.5hPa SSE 3.0mph /  4.8km/h 5.0mph /  8km/h 93% 0.04in /  1.02mm
07:52 66.6 °F /  19.2 °C 64.5 °F /  18.1 °C 30.05in /  1017.5hPa ESE 6.0mph /  9.7km/h 7.0mph /  11.3km/h 93% 0.04in /  1.02mm
07:57 66.5 °F /  19.2 °C 64.4 °F /  18 °C 30.05in /  1017.5hPa ESE 8.0mph /  12.9km/h 8.0mph /  12.9km/h 93% 0.04in /  1.02mm
08:02 66.5 °F /  19.2 °C 64.4 °F /  18 °C 30.05in /  1017.5hPa SE 5.0mph /  8km/h 8.0mph /  12.9km/h 93% 0.04in /  1.02mm
08:07 66.5 °F /  19.2 °C 64.4 °F /  18 °C 30.05in /  1017.5hPa ESE 4.0mph /  6.4km/h 6.0mph /  9.7km/h 93% 0.04in /  1.02mm
08:12 66.4 °F /  19.1 °C 64.3 °F /  17.9 °C 30.05in /  1017.5hPa SE 6.0mph /  9.7km/h 6.0mph /  9.7km/h 93% 0.04in /  1.02mm
08:17 66.4 °F /  19.1 °C 64.3 °F /  17.9 °C 30.05in /  1017.5hPa SE 3.0mph /  4.8km/h 7.0mph /  11.3km/h 93% 0.09in /  2.29mm
08:22 66.4 °F /  19.1 °C 64.3 °F /  17.9 °C 30.05in /  1017.5hPa ESE 6.0mph /  9.7km/h 7.0mph /  11.3km/h 93% 0.12in /  3.05mm
08:27 66.4 °F /  19.1 °C 64.3 °F /  17.9 °C 30.06in /  1017.8hPa SE 3.0mph /  4.8km/h 7.0mph /  11.3km/h 93% 0.09in /  2.29mm
08:32 66.4 °F /  19.1 °C 64.3 °F /  17.9 °C 30.06in /  1017.8hPa SSE 6.0mph /  9.7km/h 11.0mph /  17.7km/h 93% 0.09in /  2.29mm
08:37 66.5 °F /  19.2 °C 64.4 °F /  18 °C 30.06in /  1017.8hPa SE 9.0mph /  14.5km/h 10.0mph /  16.1km/h 93% 0.12in /  3.05mm
08:42 66.4 °F /  19.1 °C 64.3 °F /  17.9 °C 30.06in /  1017.8hPa SE 8.0mph /  12.9km/h 14.0mph /  22.5km/h 93% 0.49in /  12.45mm
08:47 66.3 °F /  19.1 °C 64.2 °F /  17.9 °C 30.07in /  1018.2hPa ESE 7.0mph /  11.3km/h 10.0mph /  16.1km/h 93% 0.11in /  2.79mm
08:52 65.9 °F /  18.8 °C 63.8 °F /  17.7 °C 30.07in /  1018.2hPa SE 6.0mph /  9.7km/h 14.0mph /  22.5km/h 93% 0.08in /  2.03mm
08:57 65.8 °F /  18.8 °C 63.7 °F /  17.6 °C 30.06in /  1017.8hPa ESE 5.0mph /  8km/h 10.0mph /  16.1km/h 93% 0.08in /  2.03mm
09:02 65.9 °F /  18.8 °C 63.8 °F /  17.7 °C 30.06in /  1017.8hPa ESE 11.0mph /  17.7km/h 11.0mph /  17.7km/h 93% 0.08in /  2.03mm
09:07 66.1 °F /  18.9 °C 64.0 °F /  17.8 °C 30.06in /  1017.8hPa East 5.0mph /  8km/h 8.0mph /  12.9km/h 93% 0.10in /  2.54mm
09:12 66.2 °F /  19 °C 64.1 °F /  17.8 °C 30.06in /  1017.8hPa East 4.0mph /  6.4km/h 8.0mph /  12.9km/h 93% 0.08in /  2.03mm
09:18 66.3 °F /  19.1 °C 64.2 °F /  17.9 °C 30.06in /  1017.8hPa East 3.0mph /  4.8km/h 9.0mph /  14.5km/h 93% 0.08in /  2.03mm
09:23 66.3 °F /  19.1 °C 64.2 °F /  17.9 °C 30.06in /  1017.8hPa ESE 4.0mph /  6.4km/h 6.0mph /  9.7km/h 93% 0.05in /  1.27mm
09:28 66.3 °F /  19.1 °C 64.2 °F /  17.9 °C 30.07in /  1018.2hPa ESE 5.0mph /  8km/h 8.0mph /  12.9km/h 93% 0.04in /  1.02mm
09:33 66.3 °F /  19.1 °C 64.2 °F /  17.9 °C 30.07in /  1018.2hPa ESE 6.0mph /  9.7km/h 7.0mph /  11.3km/h 93% 0.00in /  0mm
09:38 66.2 °F /  19 °C 63.8 °F /  17.7 °C 30.07in /  1018.2hPa East 4.0mph /  6.4km/h 7.0mph /  11.3km/h 92% 0.00in /  0mm
09:43 66.3 °F /  19.1 °C 63.9 °F /  17.7 °C 30.07in /  1018.2hPa East 4.0mph /  6.4km/h 6.0mph /  9.7km/h 92% 0.00in /  0mm
09:48 66.3 °F /  19.1 °C 63.9 °F /  17.7 °C 30.06in /  1017.8hPa ESE 5.0mph /  8km/h 7.0mph /  11.3km/h 92% 0.00in /  0mm
09:53 66.3 °F /  19.1 °C 63.9 °F /  17.7 °C 30.06in /  1017.8hPa East 3.0mph /  4.8km/h 8.0mph /  12.9km/h 92% 0.00in /  0mm
09:58 66.5 °F /  19.2 °C 64.1 °F /  17.8 °C 30.06in /  1017.8hPa East 3.0mph /  4.8km/h 5.0mph /  8km/h 92% 0.00in /  0mm
10:03 66.5 °F /  19.2 °C 64.1 °F /  17.8 °C 30.06in /  1017.8hPa ESE 4.0mph /  6.4km/h 7.0mph /  11.3km/h 92% 0.00in /  0mm
10:08 66.6 °F /  19.2 °C 64.2 °F /  17.9 °C 30.06in /  1017.8hPa ESE 5.0mph /  8km/h 6.0mph /  9.7km/h 92% 0.00in /  0mm
10:13 66.6 °F /  19.2 °C 64.2 °F /  17.9 °C 30.06in /  1017.8hPa ESE 4.0mph /  6.4km/h 8.0mph /  12.9km/h 92% 0.00in /  0mm
10:18 66.8 °F /  19.3 °C 64.4 °F /  18 °C 30.06in /  1017.8hPa SE 6.0mph /  9.7km/h 7.0mph /  11.3km/h 92% 0.00in /  0mm
10:23 66.9 °F /  19.4 °C 64.5 °F /  18.1 °C 30.06in /  1017.8hPa ESE 3.0mph /  4.8km/h 6.0mph /  9.7km/h 92% 0.00in /  0mm
10:28 67.1 °F /  19.5 °C 64.7 °F /  18.2 °C 30.06in /  1017.8hPa East 6.0mph /  9.7km/h 7.0mph /  11.3km/h 92% 0.00in /  0mm
10:33 67.4 °F /  19.7 °C 64.7 °F /  18.2 °C 30.06in /  1017.8hPa ESE 4.0mph /  6.4km/h 6.0mph /  9.7km/h 91% 0.00in /  0mm
10:38 67.7 °F /  19.8 °C 65.0 °F /  18.3 °C 30.06in /  1017.8hPa ESE 6.0mph /  9.7km/h 8.0mph /  12.9km/h 91% 0.00in /  0mm
10:43 68.0 °F /  20 °C 65.3 °F /  18.5 °C 30.06in /  1017.8hPa SE 4.0mph /  6.4km/h 7.0mph /  11.3km/h 91% 0.00in /  0mm
10:48 68.4 °F /  20.2 °C 65.0 °F /  18.3 °C 30.06in /  1017.8hPa SE 6.0mph /  9.7km/h 10.0mph /  16.1km/h 89% 0.00in /  0mm
10:53 69.1 °F /  20.6 °C 65.7 °F /  18.7 °C 30.07in /  1018.2hPa East 4.0mph /  6.4km/h 9.0mph /  14.5km/h 89% 0.00in /  0mm
10:58 69.4 °F /  20.8 °C 65.4 °F /  18.6 °C 30.07in /  1018.2hPa SE 9.0mph /  14.5km/h 11.0mph /  17.7km/h 87% 0.00in /  0mm
11:03 69.4 °F /  20.8 °C 65.4 °F /  18.6 °C 30.07in /  1018.2hPa East 10.0mph /  16.1km/h 10.0mph /  16.1km/h 87% 0.00in /  0mm
11:08 69.5 °F /  20.8 °C 65.5 °F /  18.6 °C 30.07in /  1018.2hPa SE 10.0mph /  16.1km/h 12.0mph /  19.3km/h 87% 0.00in /  0mm
11:13 69.4 °F /  20.8 °C 65.4 °F /  18.6 °C 30.07in /  1018.2hPa SE 7.0mph /  11.3km/h 9.0mph /  14.5km/h 87% 0.00in /  0mm
11:18 69.5 °F /  20.8 °C 65.5 °F /  18.6 °C 30.07in /  1018.2hPa ESE 8.0mph /  12.9km/h 12.0mph /  19.3km/h 87% 0.00in /  0mm
11:23 69.4 °F /  20.8 °C 65.4 °F /  18.6 °C 30.07in /  1018.2hPa ESE 6.0mph /  9.7km/h 14.0mph /  22.5km/h 87% 0.00in /  0mm
11:28 69.8 °F /  21 °C 65.4 °F /  18.6 °C 30.07in /  1018.2hPa ESE 11.0mph /  17.7km/h 19.0mph /  30.6km/h 86% 0.00in /  0mm
11:33 70.0 °F /  21.1 °C 65.6 °F /  18.7 °C 30.07in /  1018.2hPa ESE 15.0mph /  24.1km/h 15.0mph /  24.1km/h 86% 0.00in /  0mm
11:38 69.8 °F /  21 °C 65.4 °F /  18.6 °C 30.07in /  1018.2hPa SE 8.0mph /  12.9km/h 17.0mph /  27.4km/h 86% 0.00in /  0mm
11:43 69.8 °F /  21 °C 65.1 °F /  18.4 °C 30.07in /  1018.2hPa ESE 9.0mph /  14.5km/h 15.0mph /  24.1km/h 85% 0.00in /  0mm
11:48 70.0 °F /  21.1 °C 64.9 °F /  18.3 °C 30.07in /  1018.2hPa SE 8.0mph /  12.9km/h 13.0mph /  20.9km/h 84% 0.00in /  0mm
11:54 70.4 °F /  21.3 °C 65.3 °F /  18.5 °C 30.06in /  1017.8hPa SSE 8.0mph /  12.9km/h 12.0mph /  19.3km/h 84% 0.00in /  0mm
11:58 70.3 °F /  21.3 °C 65.2 °F /  18.4 °C 30.06in /  1017.8hPa ESE 6.0mph /  9.7km/h 12.0mph /  19.3km/h 84% 0.00in /  0mm
12:04 70.2 °F /  21.2 °C 65.5 °F /  18.6 °C 30.06in /  1017.8hPa ESE 8.0mph /  12.9km/h 12.0mph /  19.3km/h 85% 0.00in /  0mm
12:09 70.8 °F /  21.6 °C 66.4 °F /  19.1 °C 30.06in /  1017.8hPa SE 7.0mph /  11.3km/h 9.0mph /  14.5km/h 86% 0.00in /  0mm
12:14 70.9 °F /  21.6 °C 65.5 °F /  18.6 °C 30.06in /  1017.8hPa SSE 8.0mph /  12.9km/h 11.0mph /  17.7km/h 83% 0.00in /  0mm
12:19 70.9 °F /  21.6 °C 66.2 °F /  19 °C 30.06in /  1017.8hPa SSE 10.0mph /  16.1km/h 11.0mph /  17.7km/h 85% 0.00in /  0mm
12:24 70.8 °F /  21.6 °C 65.7 °F /  18.7 °C 30.06in /  1017.8hPa ESE 10.0mph /  16.1km/h 12.0mph /  19.3km/h 84% 0.00in /  0mm
12:27 70.6 °F /  21.4 °C 65.9 °F /  18.8 °C 30.06in /  1017.8hPa SSE 9.0mph /  14.5km/h 14.0mph /  22.5km/h 85% 0.00in /  0mm
12:32 70.8 °F /  21.6 °C 66.1 °F /  18.9 °C 30.06in /  1017.8hPa SE 9.0mph /  14.5km/h 14.0mph /  22.5km/h 85% 0.00in /  0mm
12:37 70.8 °F /  21.6 °C 65.7 °F /  18.7 °C 30.06in /  1017.8hPa South 10.0mph /  16.1km/h 16.0mph /  25.7km/h 84% 0.00in /  0mm
12:42 70.9 °F /  21.6 °C 66.5 °F /  19.2 °C 30.06in /  1017.8hPa SSE 4.0mph /  6.4km/h 12.0mph /  19.3km/h 86% 0.00in /  0mm
12:48 70.9 °F /  21.6 °C 66.5 °F /  19.2 °C 30.06in /  1017.8hPa SSE 8.0mph /  12.9km/h 12.0mph /  19.3km/h 86% 0.00in /  0mm
12:53 70.8 °F /  21.6 °C 66.4 °F /  19.1 °C 30.06in /  1017.8hPa SSE 9.0mph /  14.5km/h 12.0mph /  19.3km/h 86% 0.00in /  0mm
12:58 70.5 °F /  21.4 °C 66.1 °F /  18.9 °C 30.06in /  1017.8hPa SSE 6.0mph /  9.7km/h 9.0mph /  14.5km/h 86% 0.00in /  0mm
13:03 70.5 °F /  21.4 °C 66.1 °F /  18.9 °C 30.06in /  1017.8hPa SE 8.0mph /  12.9km/h 8.0mph /  12.9km/h 86% 0.00in /  0mm
13:08 70.5 °F /  21.4 °C 66.4 °F /  19.1 °C 30.06in /  1017.8hPa SE 6.0mph /  9.7km/h 11.0mph /  17.7km/h 87% 0.00in /  0mm
13:13 70.9 °F /  21.6 °C 66.5 °F /  19.2 °C 30.06in /  1017.8hPa SSE 5.0mph /  8km/h 9.0mph /  14.5km/h 86% 0.00in /  0mm
13:18 71.6 °F /  22 °C 66.9 °F /  19.4 °C 30.06in /  1017.8hPa SE 8.0mph /  12.9km/h 13.0mph /  20.9km/h 85% 0.00in /  0mm
13:23 72.7 °F /  22.6 °C 67.9 °F /  19.9 °C 30.05in /  1017.5hPa SSE 7.0mph /  11.3km/h 12.0mph /  19.3km/h 85% 0.00in /  0mm
13:28 72.9 °F /  22.7 °C 67.4 °F /  19.7 °C 30.05in /  1017.5hPa SE 9.0mph /  14.5km/h 11.0mph /  17.7km/h 83% 0.00in /  0mm
13:33 73.2 °F /  22.9 °C 67.4 °F /  19.7 °C 30.06in /  1017.8hPa SSW 6.0mph /  9.7km/h 10.0mph /  16.1km/h 82% 0.00in /  0mm
13:38 73.4 °F /  23 °C 67.6 °F /  19.8 °C 30.05in /  1017.5hPa SE 8.0mph /  12.9km/h 11.0mph /  17.7km/h 82% 0.00in /  0mm
13:43 73.2 °F /  22.9 °C 67.0 °F /  19.4 °C 30.05in /  1017.5hPa SSE 8.0mph /  12.9km/h 14.0mph /  22.5km/h 81% 0.00in /  0mm
13:48 73.1 °F /  22.8 °C 67.3 °F /  19.6 °C 30.05in /  1017.5hPa SSE 11.0mph /  17.7km/h 13.0mph /  20.9km/h 82% 0.00in /  0mm
13:53 73.0 °F /  22.8 °C 66.8 °F /  19.3 °C 30.05in /  1017.5hPa SE 13.0mph /  20.9km/h 15.0mph /  24.1km/h 81% 0.00in /  0mm
13:58 73.4 °F /  23 °C 67.9 °F /  19.9 °C 30.05in /  1017.5hPa SE 14.0mph /  22.5km/h 14.0mph /  22.5km/h 83% 0.00in /  0mm
14:03 73.8 °F /  23.2 °C 68.0 °F /  20 °C 30.05in /  1017.5hPa SSE 5.0mph /  8km/h 10.0mph /  16.1km/h 82% 0.00in /  0mm
14:09 73.5 °F /  23.1 °C 67.3 °F /  19.6 °C 30.05in /  1017.5hPa SE 11.0mph /  17.7km/h 11.0mph /  17.7km/h 81% 0.00in /  0mm
14:14 73.2 °F /  22.9 °C 67.0 °F /  19.4 °C 30.05in /  1017.5hPa SE 10.0mph /  16.1km/h 11.0mph /  17.7km/h 81% 0.00in /  0mm
14:19 73.1 °F /  22.8 °C 67.3 °F /  19.6 °C 30.05in /  1017.5hPa SSE 10.0mph /  16.1km/h 12.0mph /  19.3km/h 82% 0.00in /  0mm
14:24 73.3 °F /  22.9 °C 67.5 °F /  19.7 °C 30.05in /  1017.5hPa ESE 11.0mph /  17.7km/h 11.0mph /  17.7km/h 82% 0.00in /  0mm
14:29 73.3 °F /  22.9 °C 68.2 °F /  20.1 °C 30.04in /  1017.2hPa ESE 5.0mph /  8km/h 10.0mph /  16.1km/h 84% 0.00in /  0mm
14:30 73.4 °F /  23 °C 67.6 °F /  19.8 °C 30.04in /  1017.2hPa ESE 9.0mph /  14.5km/h 10.0mph /  16.1km/h 82% 0.00in /  0mm
14:32 73.8 °F /  23.2 °C 67.6 °F /  19.8 °C 30.04in /  1017.2hPa ESE 7.0mph /  11.3km/h 13.0mph /  20.9km/h 81% 0.00in /  0mm
14:37 74.8 °F /  23.8 °C 68.2 °F /  20.1 °C 30.05in /  1017.5hPa SE 10.0mph /  16.1km/h 12.0mph /  19.3km/h 80% 0.00in /  0mm
14:42 74.5 °F /  23.6 °C 67.9 °F /  19.9 °C 30.05in /  1017.5hPa SSE 11.0mph /  17.7km/h 11.0mph /  17.7km/h 80% 0.00in /  0mm
14:47 74.5 °F /  23.6 °C 67.9 °F /  19.9 °C 30.04in /  1017.2hPa ESE 10.0mph /  16.1km/h 16.0mph /  25.7km/h 80% 0.00in /  0mm
14:52 74.5 °F /  23.6 °C 68.3 °F /  20.2 °C 30.04in /  1017.2hPa SE 8.0mph /  12.9km/h 17.0mph /  27.4km/h 81% 0.00in /  0mm
14:57 74.2 °F /  23.4 °C 68.0 °F /  20 °C 30.04in /  1017.2hPa SSE 9.0mph /  14.5km/h 12.0mph /  19.3km/h 81% 0.00in /  0mm
15:02 74.2 °F /  23.4 °C 68.4 °F /  20.2 °C 30.04in /  1017.2hPa SE 11.0mph /  17.7km/h 11.0mph /  17.7km/h 82% 0.00in /  0mm
15:07 74.6 °F /  23.7 °C 68.0 °F /  20 °C 30.03in /  1016.8hPa SE 10.0mph /  16.1km/h 15.0mph /  24.1km/h 80% 0.00in /  0mm
15:12 74.4 °F /  23.6 °C 67.5 °F /  19.7 °C 30.04in /  1017.2hPa South 10.0mph /  16.1km/h 13.0mph /  20.9km/h 79% 0.00in /  0mm
15:17 73.8 °F /  23.2 °C 66.9 °F /  19.4 °C 30.04in /  1017.2hPa ESE 10.0mph /  16.1km/h 13.0mph /  20.9km/h 79% 0.00in /  0mm
15:22 73.4 °F /  23 °C 66.9 °F /  19.4 °C 30.04in /  1017.2hPa ESE 10.0mph /  16.1km/h 11.0mph /  17.7km/h 80% 0.00in /  0mm
15:27 73.3 °F /  22.9 °C 67.1 °F /  19.5 °C 30.04in /  1017.2hPa ESE 6.0mph /  9.7km/h 14.0mph /  22.5km/h 81% 0.00in /  0mm
15:32 73.2 °F /  22.9 °C 67.0 °F /  19.4 °C 30.03in /  1016.8hPa ESE 7.0mph /  11.3km/h 15.0mph /  24.1km/h 81% 0.00in /  0mm
15:37 73.0 °F /  22.8 °C 66.8 °F /  19.3 °C 30.03in /  1016.8hPa SE 7.0mph /  11.3km/h 14.0mph /  22.5km/h 81% 0.00in /  0mm
15:42 72.8 °F /  22.7 °C 67.0 °F /  19.4 °C 30.03in /  1016.8hPa SE 9.0mph /  14.5km/h 9.0mph /  14.5km/h 82% 0.00in /  0mm
15:47 72.6 °F /  22.6 °C 67.5 °F /  19.7 °C 30.03in /  1016.8hPa SSE 4.0mph /  6.4km/h 11.0mph /  17.7km/h 84% 0.00in /  0mm
15:52 72.5 °F /  22.5 °C 67.1 °F /  19.5 °C 30.03in /  1016.8hPa SE 5.0mph /  8km/h 11.0mph /  17.7km/h 83% 0.00in /  0mm
15:57 72.5 °F /  22.5 °C 67.4 °F /  19.7 °C 30.02in /  1016.5hPa SE 5.0mph /  8km/h 9.0mph /  14.5km/h 84% 0.00in /  0mm
16:02 72.7 °F /  22.6 °C 68.3 °F /  20.2 °C 30.02in /  1016.5hPa SE 4.0mph /  6.4km/h 6.0mph /  9.7km/h 86% 0.06in /  1.52mm
16:07 73.0 °F /  22.8 °C 68.9 °F /  20.5 °C 30.02in /  1016.5hPa SE 6.0mph /  9.7km/h 8.0mph /  12.9km/h 87% 0.06in /  1.52mm
16:12 73.0 °F /  22.8 °C 68.2 °F /  20.1 °C 30.02in /  1016.5hPa SE 7.0mph /  11.3km/h 9.0mph /  14.5km/h 85% 0.05in /  1.27mm
16:17 73.0 °F /  22.8 °C 68.6 °F /  20.3 °C 30.01in /  1016.1hPa SSE 9.0mph /  14.5km/h 9.0mph /  14.5km/h 86% 0.04in /  1.02mm
16:23 73.1 °F /  22.8 °C 68.3 °F /  20.2 °C 30.02in /  1016.5hPa SE 4.0mph /  6.4km/h 8.0mph /  12.9km/h 85% 0.00in /  0mm
16:28 73.1 °F /  22.8 °C 68.0 °F /  20 °C 30.02in /  1016.5hPa SE 10.0mph /  16.1km/h 12.0mph /  19.3km/h 84% 0.00in /  0mm
16:33 73.2 °F /  22.9 °C 68.1 °F /  20.1 °C 30.01in /  1016.1hPa SE 6.0mph /  9.7km/h 11.0mph /  17.7km/h 84% 0.00in /  0mm
16:38 73.3 °F /  22.9 °C 68.2 °F /  20.1 °C 30.02in /  1016.5hPa SE 5.0mph /  8km/h 8.0mph /  12.9km/h 84% 0.00in /  0mm
16:43 73.4 °F /  23 °C 68.3 °F /  20.2 °C 30.01in /  1016.1hPa ESE 7.0mph /  11.3km/h 11.0mph /  17.7km/h 84% 0.00in /  0mm
16:48 73.2 °F /  22.9 °C 67.7 °F /  19.8 °C 30.02in /  1016.5hPa SE 7.0mph /  11.3km/h 12.0mph /  19.3km/h 83% 0.00in /  0mm
16:53 73.1 °F /  22.8 °C 68.0 °F /  20 °C 30.01in /  1016.1hPa SE 7.0mph /  11.3km/h 9.0mph /  14.5km/h 84% 0.00in /  0mm
16:58 73.1 °F /  22.8 °C 68.3 °F /  20.2 °C 30.01in /  1016.1hPa ESE 8.0mph /  12.9km/h 9.0mph /  14.5km/h 85% 0.00in /  0mm
17:03 73.1 °F /  22.8 °C 68.0 °F /  20 °C 30.01in /  1016.1hPa SE 5.0mph /  8km/h 13.0mph /  20.9km/h 84% 0.00in /  0mm
17:08 73.1 °F /  22.8 °C 68.0 °F /  20 °C 30.01in /  1016.1hPa SE 7.0mph /  11.3km/h 11.0mph /  17.7km/h 84% 0.00in /  0mm
17:13 73.1 °F /  22.8 °C 68.0 °F /  20 °C 30.01in /  1016.1hPa ESE 6.0mph /  9.7km/h 7.0mph /  11.3km/h 84% 0.00in /  0mm
17:18 73.0 °F /  22.8 °C 67.9 °F /  19.9 °C 30.01in /  1016.1hPa ESE 6.0mph /  9.7km/h 8.0mph /  12.9km/h 84% 0.00in /  0mm
17:23 72.9 °F /  22.7 °C 68.1 °F /  20.1 °C 30.02in /  1016.5hPa SE 6.0mph /  9.7km/h 7.0mph /  11.3km/h 85% 0.00in /  0mm
17:28 72.8 °F /  22.7 °C 67.7 °F /  19.8 °C 30.02in /  1016.5hPa SE 3.0mph /  4.8km/h 12.0mph /  19.3km/h 84% 0.00in /  0mm
17:33 72.9 °F /  22.7 °C 67.4 °F /  19.7 °C 30.02in /  1016.5hPa SE 8.0mph /  12.9km/h 10.0mph /  16.1km/h 83% 0.00in /  0mm
17:38 73.0 °F /  22.8 °C 67.9 °F /  19.9 °C 30.01in /  1016.1hPa SE 4.0mph /  6.4km/h 7.0mph /  11.3km/h 84% 0.00in /  0mm
17:43 73.0 °F /  22.8 °C 67.5 °F /  19.7 °C 30.02in /  1016.5hPa SE 7.0mph /  11.3km/h 9.0mph /  14.5km/h 83% 0.00in /  0mm
17:48 73.1 °F /  22.8 °C 68.0 °F /  20 °C 30.01in /  1016.1hPa SE 3.0mph /  4.8km/h 7.0mph /  11.3km/h 84% 0.00in /  0mm
17:53 73.1 °F /  22.8 °C 68.0 °F /  20 °C 30.01in /  1016.1hPa SE 7.0mph /  11.3km/h 10.0mph /  16.1km/h 84% 0.00in /  0mm
17:58 73.1 °F /  22.8 °C 68.0 °F /  20 °C 30.01in /  1016.1hPa SE 9.0mph /  14.5km/h 11.0mph /  17.7km/h 84% 0.00in /  0mm
18:03 73.1 °F /  22.8 °C 68.0 °F /  20 °C 30.01in /  1016.1hPa ESE 9.0mph /  14.5km/h 11.0mph /  17.7km/h 84% 0.00in /  0mm
18:06 73.0 °F /  22.8 °C 67.5 °F /  19.7 °C 30.01in /  1016.1hPa SE 7.0mph /  11.3km/h 11.0mph /  17.7km/h 83% 0.00in /  0mm
18:07 73.0 °F /  22.8 °C 67.9 °F /  19.9 °C 30.01in /  1016.1hPa ESE 9.0mph /  14.5km/h 11.0mph /  17.7km/h 84% 0.00in /  0mm
18:12 72.9 °F /  22.7 °C 67.8 °F /  19.9 °C 30.01in /  1016.1hPa SE 7.0mph /  11.3km/h 11.0mph /  17.7km/h 84% 0.00in /  0mm
18:17 72.9 °F /  22.7 °C 67.8 °F /  19.9 °C 30.01in /  1016.1hPa ESE 8.0mph /  12.9km/h 9.0mph /  14.5km/h 84% 0.00in /  0mm
18:22 72.7 °F /  22.6 °C 67.6 °F /  19.8 °C 30.01in /  1016.1hPa SE 7.0mph /  11.3km/h 10.0mph /  16.1km/h 84% 0.00in /  0mm
18:27 72.6 °F /  22.6 °C 67.5 °F /  19.7 °C 30.01in /  1016.1hPa ESE 4.0mph /  6.4km/h 9.0mph /  14.5km/h 84% 0.00in /  0mm
18:32 72.4 °F /  22.4 °C 67.6 °F /  19.8 °C 30.01in /  1016.1hPa ESE 6.0mph /  9.7km/h 9.0mph /  14.5km/h 85% 0.00in /  0mm
18:37 72.3 °F /  22.4 °C 67.9 °F /  19.9 °C 30.01in /  1016.1hPa SE 3.0mph /  4.8km/h 7.0mph /  11.3km/h 86% 0.00in /  0mm
18:42 72.3 °F /  22.4 °C 67.5 °F /  19.7 °C 30.01in /  1016.1hPa ESE 13.0mph /  20.9km/h 13.0mph /  20.9km/h 85% 0.00in /  0mm
18:48 72.3 °F /  22.4 °C 67.5 °F /  19.7 °C 30.01in /  1016.1hPa SE 6.0mph /  9.7km/h 8.0mph /  12.9km/h 85% 0.00in /  0mm
18:53 72.3 °F /  22.4 °C 67.9 °F /  19.9 °C 30.01in /  1016.1hPa SE 3.0mph /  4.8km/h 8.0mph /  12.9km/h 86% 0.00in /  0mm
18:58 72.3 °F /  22.4 °C 67.5 °F /  19.7 °C 30.01in /  1016.1hPa ESE 7.0mph /  11.3km/h 11.0mph /  17.7km/h 85% 0.00in /  0mm
19:03 72.3 °F /  22.4 °C 67.5 °F /  19.7 °C 30.01in /  1016.1hPa SE 5.0mph /  8km/h 10.0mph /  16.1km/h 85% 0.00in /  0mm
19:08 72.2 °F /  22.3 °C 67.4 °F /  19.7 °C 30.01in /  1016.1hPa SE 6.0mph /  9.7km/h 7.0mph /  11.3km/h 85% 0.00in /  0mm
19:13 72.1 °F /  22.3 °C 67.7 °F /  19.8 °C 30.01in /  1016.1hPa ESE 4.0mph /  6.4km/h 8.0mph /  12.9km/h 86% 0.00in /  0mm
19:18 72.1 °F /  22.3 °C 67.7 °F /  19.8 °C 30.00in /  1015.8hPa ESE 10.0mph /  16.1km/h 10.0mph /  16.1km/h 86% 0.00in /  0mm
19:23 72.1 °F /  22.3 °C 67.3 °F /  19.6 °C 30.00in /  1015.8hPa SE 4.0mph /  6.4km/h 11.0mph /  17.7km/h 85% 0.00in /  0mm
19:28 72.0 °F /  22.2 °C 67.2 °F /  19.6 °C 30.00in /  1015.8hPa ESE 4.0mph /  6.4km/h 8.0mph /  12.9km/h 85% 0.00in /  0mm
19:33 71.9 °F /  22.2 °C 67.2 °F /  19.6 °C 30.00in /  1015.8hPa SSE 5.0mph /  8km/h 11.0mph /  17.7km/h 85% 0.00in /  0mm
19:38 71.8 °F /  22.1 °C 67.1 °F /  19.5 °C 30.00in /  1015.8hPa SSE 9.0mph /  14.5km/h 11.0mph /  17.7km/h 85% 0.00in /  0mm
19:43 71.5 °F /  21.9 °C 67.1 °F /  19.5 °C 30.00in /  1015.8hPa SSE 3.0mph /  4.8km/h 9.0mph /  14.5km/h 86% 0.00in /  0mm
19:48 71.2 °F /  21.8 °C 67.1 °F /  19.5 °C 30.00in /  1015.8hPa SSE 7.0mph /  11.3km/h 8.0mph /  12.9km/h 87% 0.00in /  0mm
19:54 70.9 °F /  21.6 °C 67.2 °F /  19.6 °C 30.00in /  1015.8hPa SE 4.0mph /  6.4km/h 8.0mph /  12.9km/h 88% 0.00in /  0mm
19:59 70.7 °F /  21.5 °C 67.0 °F /  19.4 °C 30.00in /  1015.8hPa ESE 5.0mph /  8km/h 9.0mph /  14.5km/h 88% 0.00in /  0mm
20:04 70.5 °F /  21.4 °C 67.1 °F /  19.5 °C 30.00in /  1015.8hPa SE 5.0mph /  8km/h 6.0mph /  9.7km/h 89% 0.00in /  0mm
20:09 70.5 °F /  21.4 °C 67.1 °F /  19.5 °C 30.00in /  1015.8hPa SE 6.0mph /  9.7km/h 9.0mph /  14.5km/h 89% 0.00in /  0mm
20:14 70.5 °F /  21.4 °C 67.1 °F /  19.5 °C 30.00in /  1015.8hPa SE 6.0mph /  9.7km/h 10.0mph /  16.1km/h 89% 0.00in /  0mm
20:19 70.4 °F /  21.3 °C 67.0 °F /  19.4 °C 30.00in /  1015.8hPa SE 5.0mph /  8km/h 8.0mph /  12.9km/h 89% 0.00in /  0mm
20:24 70.4 °F /  21.3 °C 67.3 °F /  19.6 °C 30.00in /  1015.8hPa SE 6.0mph /  9.7km/h 8.0mph /  12.9km/h 90% 0.00in /  0mm
20:29 70.3 °F /  21.3 °C 67.2 °F /  19.6 °C 30.00in /  1015.8hPa SE 7.0mph /  11.3km/h 12.0mph /  19.3km/h 90% 0.00in /  0mm
20:34 70.2 °F /  21.2 °C 67.1 °F /  19.5 °C 30.00in /  1015.8hPa SE 7.0mph /  11.3km/h 8.0mph /  12.9km/h 90% 0.00in /  0mm
20:39 70.2 °F /  21.2 °C 67.1 °F /  19.5 °C 30.01in /  1016.1hPa SE 9.0mph /  14.5km/h 9.0mph /  14.5km/h 90% 0.00in /  0mm
20:44 70.1 °F /  21.2 °C 67.0 °F /  19.4 °C 30.01in /  1016.1hPa SE 5.0mph /  8km/h 7.0mph /  11.3km/h 90% 0.00in /  0mm
20:49 70.1 °F /  21.2 °C 67.0 °F /  19.4 °C 30.01in /  1016.1hPa SSE 7.0mph /  11.3km/h 9.0mph /  14.5km/h 90% 0.00in /  0mm
20:54 70.0 °F /  21.1 °C 66.9 °F /  19.4 °C 30.01in /  1016.1hPa SE 5.0mph /  8km/h 7.0mph /  11.3km/h 90% 0.00in /  0mm
20:59 70.0 °F /  21.1 °C 66.9 °F /  19.4 °C 30.01in /  1016.1hPa SSE 7.0mph /  11.3km/h 8.0mph /  12.9km/h 90% 0.00in /  0mm
21:04 69.9 °F /  21.1 °C 66.8 °F /  19.3 °C 30.01in /  1016.1hPa SSE 3.0mph /  4.8km/h 8.0mph /  12.9km/h 90% 0.00in /  0mm
21:09 69.8 °F /  21 °C 66.7 °F /  19.3 °C 30.01in /  1016.1hPa SSE 6.0mph /  9.7km/h 7.0mph /  11.3km/h 90% 0.00in /  0mm
21:15 69.7 °F /  20.9 °C 66.6 °F /  19.2 °C 30.01in /  1016.1hPa South 5.0mph /  8km/h 9.0mph /  14.5km/h 90% 0.00in /  0mm
21:20 69.6 °F /  20.9 °C 66.5 °F /  19.2 °C 30.01in /  1016.1hPa SSE 5.0mph /  8km/h 6.0mph /  9.7km/h 90% 0.00in /  0mm
21:25 69.4 °F /  20.8 °C 66.3 °F /  19.1 °C 30.01in /  1016.1hPa SE 4.0mph /  6.4km/h 6.0mph /  9.7km/h 90% 0.00in /  0mm
21:30 69.3 °F /  20.7 °C 66.2 °F /  19 °C 30.01in /  1016.1hPa SE 5.0mph /  8km/h 7.0mph /  11.3km/h 90% 0.00in /  0mm
21:35 69.2 °F /  20.7 °C 66.2 °F /  19 °C 30.01in /  1016.1hPa SSE 5.0mph /  8km/h 9.0mph /  14.5km/h 90% 0.00in /  0mm
21:40 69.0 °F /  20.6 °C 65.9 °F /  18.8 °C 30.01in /  1016.1hPa SE 7.0mph /  11.3km/h 7.0mph /  11.3km/h 90% 0.00in /  0mm
21:45 68.9 °F /  20.5 °C 65.8 °F /  18.8 °C 30.00in /  1015.8hPa SE 4.0mph /  6.4km/h 9.0mph /  14.5km/h 90% 0.00in /  0mm
21:46 68.9 °F /  20.5 °C 65.8 °F /  18.8 °C 30.00in /  1015.8hPa SE 5.0mph /  8km/h 9.0mph /  14.5km/h 90% 0.00in /  0mm
21:51 68.9 °F /  20.5 °C 65.8 °F /  18.8 °C 30.01in /  1016.1hPa SE 7.0mph /  11.3km/h 9.0mph /  14.5km/h 90% 0.00in /  0mm
21:56 68.7 °F /  20.4 °C 65.7 °F /  18.7 °C 30.01in /  1016.1hPa SE 5.0mph /  8km/h 7.0mph /  11.3km/h 90% 0.00in /  0mm
22:01 68.5 °F /  20.3 °C 65.8 °F /  18.8 °C 30.01in /  1016.1hPa SE 4.0mph /  6.4km/h 7.0mph /  11.3km/h 91% 0.00in /  0mm
22:06 68.5 °F /  20.3 °C 65.8 °F /  18.8 °C 30.01in /  1016.1hPa SE 4.0mph /  6.4km/h 8.0mph /  12.9km/h 91% 0.00in /  0mm
22:11 68.3 °F /  20.2 °C 65.6 °F /  18.7 °C 30.01in /  1016.1hPa ESE 6.0mph /  9.7km/h 7.0mph /  11.3km/h 91% 0.00in /  0mm
22:16 68.3 °F /  20.2 °C 65.6 °F /  18.7 °C 30.01in /  1016.1hPa ESE 5.0mph /  8km/h 7.0mph /  11.3km/h 91% 0.00in /  0mm
22:21 68.1 °F /  20.1 °C 65.4 °F /  18.6 °C 30.01in /  1016.1hPa ESE 4.0mph /  6.4km/h 5.0mph /  8km/h 91% 0.00in /  0mm
22:26 68.0 °F /  20 °C 65.6 °F /  18.7 °C 30.01in /  1016.1hPa SE 2.0mph /  3.2km/h 4.0mph /  6.4km/h 92% 0.00in /  0mm
22:31 67.8 °F /  19.9 °C 65.4 °F /  18.6 °C 30.02in /  1016.5hPa SE 1.0mph /  1.6km/h 3.0mph /  4.8km/h 92% 0.00in /  0mm
22:37 67.7 °F /  19.8 °C 65.3 °F /  18.5 °C 30.02in /  1016.5hPa SSE 2.0mph /  3.2km/h 4.0mph /  6.4km/h 92% 0.00in /  0mm
22:42 67.6 °F /  19.8 °C 65.2 °F /  18.4 °C 30.02in /  1016.5hPa SE 2.0mph /  3.2km/h 3.0mph /  4.8km/h 92% 0.00in /  0mm
22:47 67.5 °F /  19.7 °C 65.1 °F /  18.4 °C 30.02in /  1016.5hPa SE 2.0mph /  3.2km/h 3.0mph /  4.8km/h 92% 0.00in /  0mm
22:52 67.4 °F /  19.7 °C 65.0 °F /  18.3 °C 30.02in /  1016.5hPa SE 4.0mph /  6.4km/h 5.0mph /  8km/h 92% 0.00in /  0mm
22:57 67.3 °F /  19.6 °C 64.9 °F /  18.3 °C 30.01in /  1016.1hPa ESE 4.0mph /  6.4km/h 4.0mph /  6.4km/h 92% 0.00in /  0mm
23:02 67.3 °F /  19.6 °C 65.2 °F /  18.4 °C 30.02in /  1016.5hPa SE 2.0mph /  3.2km/h 5.0mph /  8km/h 93% 0.00in /  0mm
23:07 67.2 °F /  19.6 °C 65.1 °F /  18.4 °C 30.02in /  1016.5hPa SE 2.0mph /  3.2km/h 4.0mph /  6.4km/h 93% 0.00in /  0mm
23:12 67.1 °F /  19.5 °C 65.0 °F /  18.3 °C 30.01in /  1016.1hPa ESE 4.0mph /  6.4km/h 4.0mph /  6.4km/h 93% 0.00in /  0mm
23:17 67.0 °F /  19.4 °C 64.9 °F /  18.3 °C 30.01in /  1016.1hPa ESE 5.0mph /  8km/h 5.0mph /  8km/h 93% 0.00in /  0mm
23:22 66.9 °F /  19.4 °C 64.8 °F /  18.2 °C 30.01in /  1016.1hPa SE 4.0mph /  6.4km/h 4.0mph /  6.4km/h 93% 0.00in /  0mm
23:27 67.0 °F /  19.4 °C 64.9 °F /  18.3 °C 30.01in /  1016.1hPa SE 5.0mph /  8km/h 6.0mph /  9.7km/h 93% 0.00in /  0mm
23:32 67.0 °F /  19.4 °C 64.9 °F /  18.3 °C 30.01in /  1016.1hPa SE 5.0mph /  8km/h 6.0mph /  9.7km/h 93% 0.00in /  0mm
23:37 67.0 °F /  19.4 °C 64.9 °F /  18.3 °C 30.01in /  1016.1hPa SE 3.0mph /  4.8km/h 7.0mph /  11.3km/h 93% 0.00in /  0mm
23:42 66.9 °F /  19.4 °C 64.8 °F /  18.2 °C 30.00in /  1015.8hPa SE 3.0mph /  4.8km/h 5.0mph /  8km/h 93% 0.00in /  0mm
23:47 66.9 °F /  19.4 °C 64.8 °F /  18.2 °C 30.00in /  1015.8hPa SE 4.0mph /  6.4km/h 6.0mph /  9.7km/h 93% 0.00in /  0mm
23:52 66.9 °F /  19.4 °C 64.8 °F /  18.2 °C 30.00in /  1015.8hPa SE 2.0mph /  3.2km/h 5.0mph /  8km/h 93% 0.00in /  0mm
23:57 66.8 °F /  19.3 °C 64.7 °F /  18.2 °C 30.00in /  1015.8hPa SE 5.0mph /  8km/h 5.0mph /  8km/h 93% 0.00in /  0mm
Compliments of Weather Underground